Time;durP1;ratioP1;P1;durP2;ratioP2;P2;SDS_P1;SDS_P2;PMS_P1;PMS_P2;Temp;Humidity;BMP_temperature;BMP_pressure;BME280_temperature;BME280_humidity;BME280_pressure;Samples;Min_cycle;Max_cycle;Signal;HPM_P1;HPM_P2
2023/04/26 00:01:59;;;;;;;9.70;3.85;;;4.90;99.90;;;;;;5059285;28;20041;-79
2023/04/26 00:04:27;;;;;;;17.10;4.18;;;4.90;99.90;;;;;;5060061;28;20063;-79
2023/04/26 00:06:53;;;;;;;12.30;3.95;;;4.80;99.90;;;;;;5057799;28;20077;-78
2023/04/26 00:09:19;;;;;;;12.25;4.40;;;4.80;99.90;;;;;;5061679;28;20076;-79
2023/04/26 00:11:44;;;;;;;10.60;4.38;;;4.90;99.90;;;;;;5055526;28;20509;-80
2023/04/26 00:14:10;;;;;;;9.77;4.47;;;4.80;99.90;;;;;;5061346;28;20048;-79
2023/04/26 00:16:36;;;;;;;9.70;4.20;;;4.80;99.90;;;;;;5061450;28;20116;-79
2023/04/26 00:19:03;;;;;;;12.57;4.20;;;4.70;99.90;;;;;;5062760;28;20427;-79
2023/04/26 00:21:28;;;;;;;9.10;4.33;;;4.70;99.90;;;;;;5058970;28;20751;-80
2023/04/26 00:23:54;;;;;;;11.15;4.40;;;4.70;99.90;;;;;;5062659;28;20306;-80
2023/04/26 00:26:21;;;;;;;10.68;4.60;;;4.70;99.90;;;;;;5058842;28;20491;-79
2023/04/26 00:28:49;;;;;;;17.63;5.30;;;4.60;99.90;;;;;;5058054;28;20050;-80
2023/04/26 00:31:16;;;;;;;18.05;5.03;;;4.60;99.90;;;;;;5056751;28;20047;-79
2023/04/26 00:33:43;;;;;;;12.40;4.68;;;4.50;99.90;;;;;;5054883;28;20079;-77
2023/04/26 00:36:09;;;;;;;10.45;4.45;;;4.60;99.90;;;;;;5060517;28;20041;-79
2023/04/26 00:38:35;;;;;;;12.60;4.82;;;4.50;99.90;;;;;;5055468;28;20128;-80
2023/04/26 00:41:01;;;;;;;10.32;4.35;;;4.50;99.90;;;;;;5059892;28;20120;-74
2023/04/26 00:43:26;;;;;;;12.20;4.50;;;4.50;99.90;;;;;;5062983;28;20037;-76
2023/04/26 00:45:52;;;;;;;11.15;4.50;;;4.40;99.90;;;;;;5063034;28;20040;-75
2023/04/26 00:48:19;;;;;;;10.32;4.72;;;4.40;99.90;;;;;;5056730;28;20051;-76
2023/04/26 00:50:46;;;;;;;11.95;4.47;;;4.40;99.90;;;;;;5057255;28;20052;-76
2023/04/26 00:53:13;;;;;;;15.30;4.63;;;4.40;99.90;;;;;;5060885;28;20067;-75
2023/04/26 00:55:43;;;;;;;8.80;3.95;;;4.30;99.90;;;;;;5058336;28;20046;-76
2023/04/26 00:58:09;;;;;;;19.77;4.60;;;4.30;99.90;;;;;;5059764;28;20475;-76
2023/04/26 01:00:35;;;;;;;12.55;4.50;;;4.30;99.90;;;;;;5059847;28;20091;-76
2023/04/26 01:03:00;;;;;;;9.48;4.65;;;4.30;99.90;;;;;;5053598;28;20041;-76
2023/04/26 01:05:26;;;;;;;12.15;4.13;;;4.20;99.90;;;;;;5062619;28;20045;-76
2023/04/26 01:07:52;;;;;;;12.02;4.40;;;4.30;99.90;;;;;;5061241;28;20158;-77
2023/04/26 01:10:18;;;;;;;11.02;4.20;;;4.30;99.90;;;;;;5057489;28;20140;-76
2023/04/26 01:12:44;;;;;;;9.02;4.30;;;4.20;99.90;;;;;;5054163;28;20128;-77
2023/04/26 01:15:10;;;;;;;12.55;4.40;;;4.20;99.90;;;;;;5056400;28;20159;-77
2023/04/26 01:17:36;;;;;;;11.95;4.03;;;4.20;99.90;;;;;;5059470;28;20037;-76
2023/04/26 01:20:03;;;;;;;16.45;4.38;;;4.30;99.90;;;;;;5061436;28;20039;-77
2023/04/26 01:22:32;;;;;;;10.20;4.70;;;4.30;99.90;;;;;;5059190;28;20064;-76
2023/04/26 01:25:00;;;;;;;14.40;4.60;;;4.30;99.90;;;;;;5054272;28;20347;-75
2023/04/26 01:27:26;;;;;;;12.60;4.50;;;4.40;99.90;;;;;;5057580;28;20571;-76
2023/04/26 01:29:52;;;;;;;12.27;4.70;;;4.40;99.90;;;;;;5049909;28;20120;-77
2023/04/26 01:32:21;;;;;;;11.38;4.88;;;4.40;99.90;;;;;;5057535;28;20044;-76
2023/04/26 01:34:46;;;;;;;13.73;4.95;;;4.40;99.90;;;;;;5057306;28;20052;-77
2023/04/26 01:37:12;;;;;;;12.85;4.47;;;4.50;99.90;;;;;;5052710;28;20634;-76
2023/04/26 01:39:38;;;;;;;13.27;4.53;;;4.50;99.90;;;;;;5056464;28;20096;-76
2023/04/26 01:42:04;;;;;;;7.40;4.43;;;4.50;99.90;;;;;;5097037;28;20163;-77
2023/04/26 01:44:30;;;;;;;11.57;4.40;;;4.50;99.90;;;;;;5060635;28;20036;-77
2023/04/26 01:46:56;;;;;;;11.35;4.43;;;4.60;99.90;;;;;;5052834;28;20044;-77
2023/04/26 01:49:22;;;;;;;9.43;4.10;;;4.50;99.90;;;;;;5055969;28;20048;-77
2023/04/26 01:51:48;;;;;;;9.32;4.10;;;4.50;99.90;;;;;;5060348;28;20041;-77
2023/04/26 01:54:16;;;;;;;12.18;4.55;;;4.60;99.90;;;;;;5049524;28;20041;-75
2023/04/26 01:56:42;;;;;;;10.48;4.20;;;4.50;99.90;;;;;;5058465;28;20411;-76
2023/04/26 01:59:07;;;;;;;10.02;3.92;;;4.60;99.90;;;;;;5062510;28;20479;-78
2023/04/26 02:01:33;;;;;;;9.23;3.95;;;4.60;99.90;;;;;;5060641;28;20484;-77
2023/04/26 02:03:59;;;;;;;13.43;4.28;;;4.50;99.90;;;;;;5052742;28;20095;-76
2023/04/26 02:06:25;;;;;;;7.60;3.63;;;4.60;99.90;;;;;;5061500;28;20053;-76
2023/04/26 02:08:52;;;;;;;9.70;4.10;;;4.50;99.90;;;;;;5058626;28;20080;-76
2023/04/26 02:11:17;;;;;;;10.47;3.40;;;4.50;99.90;;;;;;5091347;28;20395;-77
2023/04/26 02:13:43;;;;;;;9.98;4.00;;;4.50;99.90;;;;;;5055363;28;20039;-78
2023/04/26 02:16:09;;;;;;;11.85;3.60;;;4.50;99.90;;;;;;5055265;28;20033;-78
2023/04/26 02:18:34;;;;;;;10.95;3.33;;;4.50;99.90;;;;;;5055417;28;20045;-76
2023/04/26 02:21:00;;;;;;;11.95;4.43;;;4.50;99.90;;;;;;5057539;28;20082;-76
2023/04/26 02:23:26;;;;;;;10.45;4.18;;;4.40;99.90;;;;;;5058162;28;20079;-77
2023/04/26 02:25:51;;;;;;;12.70;4.00;;;4.50;99.90;;;;;;5056047;28;20068;-76
2023/04/26 02:28:17;;;;;;;12.98;4.25;;;4.40;99.90;;;;;;5060405;28;20044;-76
2023/04/26 02:30:43;;;;;;;11.30;4.18;;;4.30;99.90;;;;;;5061458;28;20048;-76
2023/04/26 02:33:09;;;;;;;11.40;4.50;;;4.30;99.90;;;;;;5065010;28;20037;-78
2023/04/26 02:35:38;;;;;;;14.73;4.50;;;4.30;99.90;;;;;;5067186;28;20139;-76
2023/04/26 02:38:04;;;;;;;11.70;4.47;;;4.20;99.90;;;;;;5053864;28;20526;-76
2023/04/26 02:40:29;;;;;;;11.65;4.75;;;4.20;99.90;;;;;;5060513;28;20064;-76
2023/04/26 02:42:55;;;;;;;12.68;4.82;;;4.10;99.90;;;;;;5062959;28;20040;-76
2023/04/26 02:45:21;;;;;;;10.43;4.53;;;4.10;99.90;;;;;;5063554;28;20036;-77
2023/04/26 02:47:46;;;;;;;11.52;4.32;;;4.10;99.90;;;;;;5061279;28;20496;-77
2023/04/26 02:50:12;;;;;;;9.82;4.65;;;4.10;99.90;;;;;;5063478;28;20044;-76
2023/04/26 02:52:38;;;;;;;9.00;4.63;;;4.10;99.90;;;;;;5052323;28;20124;-76
2023/04/26 02:55:04;;;;;;;13.18;4.95;;;4.10;99.90;;;;;;5057899;28;20476;-76
2023/04/26 02:57:32;;;;;;;10.63;4.10;;;4.10;99.90;;;;;;5063704;28;20083;-77
2023/04/26 02:59:58;;;;;;;11.88;4.03;;;4.10;99.90;;;;;;5059541;28;20090;-76
2023/04/26 03:02:25;;;;;;;8.63;3.95;;;4.10;99.90;;;;;;5056989;28;20713;-76
2023/04/26 03:04:50;;;;;;;13.32;4.20;;;4.10;99.90;;;;;;5057935;28;20081;-76
2023/04/26 03:07:16;;;;;;;8.88;4.00;;;4.10;99.90;;;;;;5065339;28;20531;-77
2023/04/26 03:09:42;;;;;;;12.60;4.20;;;4.10;99.90;;;;;;5056321;28;20056;-77
2023/04/26 03:12:08;;;;;;;11.38;4.05;;;4.10;99.90;;;;;;5060041;28;20739;-77
2023/04/26 03:14:34;;;;;;;8.57;4.30;;;4.10;99.90;;;;;;5057111;28;20488;-77
2023/04/26 03:17:00;;;;;;;10.30;4.90;;;4.20;99.90;;;;;;5060123;28;20119;-76
2023/04/26 03:19:27;;;;;;;8.82;3.70;;;4.20;99.90;;;;;;5055691;28;20453;-76
2023/04/26 03:21:53;;;;;;;10.13;4.23;;;4.30;99.90;;;;;;5056077;28;20110;-76
2023/04/26 03:24:19;;;;;;;10.55;4.00;;;4.20;99.90;;;;;;5060550;28;20040;-78
2023/04/26 03:26:45;;;;;;;8.60;4.15;;;4.30;99.90;;;;;;5057449;28;20331;-75
2023/04/26 03:29:11;;;;;;;9.18;4.00;;;4.20;99.90;;;;;;5049759;28;20045;-77
2023/04/26 03:31:37;;;;;;;7.85;4.20;;;4.20;99.90;;;;;;5093460;28;20032;-76
2023/04/26 03:34:03;;;;;;;12.43;4.55;;;4.20;99.90;;;;;;5061418;28;20081;-76
2023/04/26 03:36:29;;;;;;;10.13;3.70;;;4.10;99.90;;;;;;5058855;28;20037;-75
2023/04/26 03:38:55;;;;;;;7.05;3.80;;;4.10;99.90;;;;;;5054429;28;20495;-76
2023/04/26 03:41:21;;;;;;;12.48;4.55;;;4.00;99.90;;;;;;5059435;28;20135;-76
2023/04/26 03:43:47;;;;;;;7.78;4.10;;;4.00;99.90;;;;;;5055651;28;20045;-76
2023/04/26 03:46:13;;;;;;;8.32;4.80;;;4.00;99.90;;;;;;5055840;28;20033;-76
2023/04/26 03:48:39;;;;;;;14.02;4.07;;;4.00;99.90;;;;;;5064498;28;20105;-76
2023/04/26 03:51:05;;;;;;;7.50;3.67;;;4.00;99.90;;;;;;5061934;28;20036;-77
2023/04/26 03:53:31;;;;;;;12.60;3.90;;;4.00;99.90;;;;;;5065814;28;20071;-79
2023/04/26 03:55:57;;;;;;;12.13;3.85;;;3.90;99.90;;;;;;5061303;28;20064;-75
2023/04/26 03:58:28;;;;;;;7.90;3.75;;;3.90;99.90;;;;;;5061023;28;20082;-76
2023/04/26 04:00:57;;;;;;;10.55;4.10;;;4.00;99.90;;;;;;5056516;28;20044;-77
2023/04/26 04:03:23;;;;;;;8.13;3.88;;;3.90;99.90;;;;;;5058087;28;20485;-76
2023/04/26 04:05:48;;;;;;;9.80;4.07;;;3.90;99.90;;;;;;5066246;28;20091;-75
2023/04/26 04:08:14;;;;;;;10.50;4.13;;;3.80;99.90;;;;;;5063653;28;20119;-77
2023/04/26 04:10:41;;;;;;;11.63;4.13;;;3.80;99.90;;;;;;5052683;28;20140;-76
2023/04/26 04:13:07;;;;;;;8.63;3.78;;;3.80;99.90;;;;;;5060630;28;20446;-75
2023/04/26 04:15:33;;;;;;;10.90;4.10;;;3.80;99.90;;;;;;5059784;28;20053;-76
2023/04/26 04:17:58;;;;;;;7.93;4.00;;;3.80;99.90;;;;;;5064743;28;20048;-77
2023/04/26 04:20:24;;;;;;;8.57;3.95;;;3.80;99.90;;;;;;5052915;28;20045;-77
2023/04/26 04:22:50;;;;;;;9.57;4.70;;;3.70;99.90;;;;;;5061744;28;20036;-76
2023/04/26 04:25:15;;;;;;;8.82;3.75;;;3.70;99.90;;;;;;5062827;28;20083;-76
2023/04/26 04:27:44;;;;;;;11.70;3.67;;;3.60;99.90;;;;;;5058305;28;20624;-76
2023/04/26 04:30:11;;;;;;;11.65;3.95;;;3.60;99.90;;;;;;5060796;28;20040;-76
2023/04/26 04:32:38;;;;;;;10.18;4.07;;;3.60;99.90;;;;;;5059262;28;20041;-76
2023/04/26 04:35:04;;;;;;;10.52;3.65;;;3.70;99.90;;;;;;5062484;28;20047;-77
2023/04/26 04:37:32;;;;;;;12.30;4.38;;;3.60;99.90;;;;;;5058694;28;20094;-76
2023/04/26 04:39:58;;;;;;;9.80;3.78;;;3.60;99.90;;;;;;5062565;28;20040;-76
2023/04/26 04:42:26;;;;;;;10.63;3.92;;;3.60;99.90;;;;;;5060681;28;20032;-76
2023/04/26 04:45:07;;;;;;;13.75;4.00;;;3.60;99.90;;;;;;5056084;28;20040;-77
2023/04/26 04:47:33;;;;;;;8.93;3.67;;;3.60;99.90;;;;;;5058156;28;20059;-75
2023/04/26 04:49:59;;;;;;;12.23;4.75;;;3.70;99.90;;;;;;5053958;28;20040;-77
2023/04/26 04:52:24;;;;;;;9.63;4.13;;;3.70;99.90;;;;;;5056910;28;20040;-76
2023/04/26 04:54:50;;;;;;;10.63;4.13;;;3.70;99.90;;;;;;5060234;28;20036;-76
2023/04/26 04:57:15;;;;;;;10.63;4.30;;;3.60;99.90;;;;;;5059211;28;20150;-76
2023/04/26 04:59:42;;;;;;;7.35;4.32;;;3.60;99.90;;;;;;5055822;28;20140;-76
2023/04/26 05:02:07;;;;;;;9.70;4.30;;;3.70;99.90;;;;;;5057282;28;20679;-76
2023/04/26 05:04:33;;;;;;;10.75;4.50;;;3.70;99.90;;;;;;5057548;28;20040;-76
2023/04/26 05:06:59;;;;;;;10.13;4.50;;;3.70;99.90;;;;;;5054727;28;20047;-76
2023/04/26 05:09:25;;;;;;;9.90;4.28;;;3.70;99.90;;;;;;5054624;28;20040;-75
2023/04/26 05:11:51;;;;;;;11.57;4.93;;;3.70;99.90;;;;;;5058266;28;20127;-76
2023/04/26 05:14:16;;;;;;;11.65;4.95;;;3.70;99.90;;;;;;5057614;28;20043;-76
2023/04/26 05:16:42;;;;;;;13.07;4.90;;;3.80;99.90;;;;;;5056455;28;20045;-77
2023/04/26 05:19:08;;;;;;;13.18;4.07;;;3.80;99.90;;;;;;5056896;28;20044;-76
2023/04/26 05:21:33;;;;;;;8.82;4.00;;;3.80;99.90;;;;;;5051012;28;20052;-77
2023/04/26 05:23:59;;;;;;;9.25;4.00;;;3.90;99.90;;;;;;5054056;28;20043;-76
2023/04/26 05:26:25;;;;;;;8.80;4.30;;;4.00;99.90;;;;;;5054750;28;20080;-76
2023/04/26 05:28:50;;;;;;;14.07;5.05;;;4.00;99.90;;;;;;5058824;28;20036;-77
2023/04/26 05:31:20;;;;;;;11.82;4.53;;;4.00;99.90;;;;;;5058033;28;20079;-77
2023/04/26 05:33:46;;;;;;;12.90;4.30;;;4.00;99.90;;;;;;5056891;28;20044;-75
2023/04/26 05:36:15;;;;;;;7.88;4.10;;;4.00;99.90;;;;;;5052133;28;20109;-74
2023/04/26 05:38:41;;;;;;;10.30;4.78;;;4.10;99.90;;;;;;5056751;28;20063;-74
2023/04/26 05:41:07;;;;;;;11.82;4.65;;;4.10;99.90;;;;;;5064667;28;20060;-74
2023/04/26 05:43:33;;;;;;;11.85;4.82;;;4.20;99.90;;;;;;5062593;28;20092;-76
2023/04/26 05:45:59;;;;;;;11.77;4.82;;;4.30;99.90;;;;;;5063260;28;20048;-74
2023/04/26 05:48:25;;;;;;;16.63;5.50;;;4.40;99.90;;;;;;5059815;28;20048;-74
2023/04/26 05:50:51;;;;;;;13.32;5.63;;;4.40;99.90;;;;;;5060288;28;20128;-75
2023/04/26 05:53:18;;;;;;;10.63;5.60;;;4.50;99.90;;;;;;5064653;28;20048;-75
2023/04/26 05:55:44;;;;;;;10.40;5.40;;;4.50;99.90;;;;;;5066024;28;20044;-74
2023/04/26 05:58:10;;;;;;;15.30;5.50;;;4.60;99.90;;;;;;5094730;28;20407;-74
2023/04/26 06:00:37;;;;;;;9.63;5.15;;;4.70;99.90;;;;;;5065322;28;20048;-74
2023/04/26 06:03:03;;;;;;;11.50;5.55;;;4.70;99.90;;;;;;5062755;28;20404;-74
2023/04/26 06:05:30;;;;;;;9.55;5.13;;;4.70;99.90;;;;;;5061049;28;20090;-74
2023/04/26 06:07:56;;;;;;;10.20;5.25;;;4.80;99.90;;;;;;5061724;28;20667;-75
2023/04/26 06:10:22;;;;;;;10.80;5.03;;;4.80;99.90;;;;;;5067733;28;20047;-74
2023/04/26 06:12:48;;;;;;;8.95;5.18;;;4.80;99.90;;;;;;5060796;28;20335;-74
2023/04/26 06:15:14;;;;;;;14.88;4.80;;;4.90;99.90;;;;;;5069044;28;20376;-75
2023/04/26 06:17:40;;;;;;;9.95;4.32;;;4.90;99.90;;;;;;5097482;28;20071;-76
2023/04/26 06:20:08;;;;;;;8.45;4.10;;;5.00;99.90;;;;;;5069900;28;20097;-74
2023/04/26 06:22:35;;;;;;;12.13;4.30;;;5.00;99.90;;;;;;5065590;28;20063;-74
2023/04/26 06:25:01;;;;;;;8.57;4.18;;;5.10;99.90;;;;;;5065263;28;20120;-74
2023/04/26 06:27:26;;;;;;;10.98;4.35;;;5.20;99.90;;;;;;5060222;28;20129;-74
2023/04/26 06:29:52;;;;;;;7.10;3.90;;;5.20;99.90;;;;;;5068226;28;20032;-75
2023/04/26 06:32:21;;;;;;;8.95;4.15;;;5.20;99.90;;;;;;5061102;28;20048;-75
2023/04/26 06:34:50;;;;;;;11.23;4.30;;;5.20;99.90;;;;;;5063513;28;20033;-73
2023/04/26 06:37:23;;;;;;;13.00;4.57;;;5.30;99.90;;;;;;5063795;28;20448;-74
2023/04/26 06:39:50;;;;;;;11.90;4.22;;;5.30;99.90;;;;;;5065367;28;20044;-74
2023/04/26 06:42:19;;;;;;;10.60;4.28;;;5.40;99.90;;;;;;5065997;28;20041;-75
2023/04/26 06:44:45;;;;;;;8.80;3.80;;;5.40;99.90;;;;;;5063424;28;20091;-74
2023/04/26 06:47:11;;;;;;;12.07;4.18;;;5.50;99.90;;;;;;5069727;28;20577;-74
2023/04/26 06:49:36;;;;;;;9.82;4.28;;;5.60;99.90;;;;;;5065718;28;20060;-74
2023/04/26 06:52:02;;;;;;;11.20;4.60;;;5.70;99.90;;;;;;5064575;28;20044;-75
2023/04/26 06:54:29;;;;;;;9.95;4.65;;;5.70;99.90;;;;;;5066737;28;20040;-72
2023/04/26 06:56:55;;;;;;;9.02;3.80;;;5.80;99.90;;;;;;5069009;28;20041;-73
2023/04/26 06:59:22;;;;;;;9.27;4.40;;;5.90;99.90;;;;;;5062410;28;20043;-73
2023/04/26 07:01:47;;;;;;;11.77;3.95;;;6.00;99.90;;;;;;5067728;28;20032;-73
2023/04/26 07:04:14;;;;;;;11.00;3.90;;;6.10;99.90;;;;;;5063545;28;20100;-73
2023/04/26 07:06:40;;;;;;;9.68;3.97;;;6.10;99.90;;;;;;5066471;28;20072;-73
2023/04/26 07:09:06;;;;;;;10.05;3.97;;;6.20;99.90;;;;;;5067383;28;20474;-73
2023/04/26 07:11:32;;;;;;;10.43;4.30;;;6.30;99.90;;;;;;5059744;28;20074;-71
2023/04/26 07:13:57;;;;;;;11.30;4.68;;;6.40;99.90;;;;;;5058393;28;20040;-72
2023/04/26 07:16:23;;;;;;;10.02;4.03;;;6.50;99.90;;;;;;5055359;28;20033;-72
2023/04/26 07:18:49;;;;;;;9.25;3.72;;;6.60;99.90;;;;;;5059389;28;20040;-72
2023/04/26 07:21:15;;;;;;;9.05;3.90;;;6.70;99.90;;;;;;5053421;28;20567;-71
2023/04/26 07:23:40;;;;;;;9.10;3.53;;;6.70;99.90;;;;;;5050672;28;20045;-72
2023/04/26 07:26:06;;;;;;;10.65;3.38;;;6.70;99.90;;;;;;5058435;28;20046;-73
2023/04/26 07:28:32;;;;;;;7.43;3.47;;;6.70;99.90;;;;;;5055678;28;20080;-74
2023/04/26 07:30:59;;;;;;;9.50;4.28;;;6.80;99.90;;;;;;5062453;28;20036;-73
2023/04/26 07:33:25;;;;;;;6.70;3.35;;;7.00;99.90;;;;;;5052023;28;20481;-73
2023/04/26 07:35:58;;;;;;;7.43;3.40;;;7.10;99.90;;;;;;5060941;28;20159;-73
2023/04/26 07:38:24;;;;;;;14.32;3.97;;;7.20;99.90;;;;;;5048761;28;20083;-72
2023/04/26 07:40:50;;;;;;;10.15;3.40;;;7.20;99.90;;;;;;5054315;28;20044;-73
2023/04/26 07:43:18;;;;;;;10.23;3.50;;;7.30;99.90;;;;;;5050282;28;20605;-72
2023/04/26 07:45:43;;;;;;;7.63;3.10;;;7.40;99.90;;;;;;5053071;28;20124;-74
2023/04/26 07:48:09;;;;;;;7.25;2.95;;;7.40;99.90;;;;;;5053667;28;20156;-73
2023/04/26 07:50:35;;;;;;;12.82;2.70;;;7.50;99.90;;;;;;5053319;28;20128;-72
2023/04/26 07:53:00;;;;;;;9.05;3.00;;;7.50;99.90;;;;;;5052745;28;20622;-74
2023/04/26 07:55:26;;;;;;;10.48;3.80;;;7.60;99.90;;;;;;5047353;28;20712;-73
2023/04/26 07:57:52;;;;;;;10.18;3.35;;;7.60;99.90;;;;;;5058473;28;20093;-73
2023/04/26 08:00:18;;;;;;;8.63;3.70;;;7.70;99.90;;;;;;5055579;28;20041;-73
2023/04/26 08:02:47;;;;;;;7.30;3.35;;;7.80;99.90;;;;;;5057270;28;20049;-73
2023/04/26 08:05:14;;;;;;;20.48;4.18;;;7.80;99.90;;;;;;5064626;28;20052;-72
2023/04/26 08:07:40;;;;;;;9.40;3.43;;;8.00;99.90;;;;;;5055640;28;20047;-76
2023/04/26 08:10:07;;;;;;;8.38;2.40;;;8.00;99.90;;;;;;5054249;28;20542;-75
2023/04/26 08:12:33;;;;;;;11.60;2.92;;;8.00;99.90;;;;;;5057046;28;20056;-72
2023/04/26 08:15:06;;;;;;;8.82;2.70;;;8.00;99.90;;;;;;5055757;28;20029;-74
2023/04/26 08:17:31;;;;;;;7.43;2.92;;;8.00;99.90;;;;;;5083636;28;20045;-74
2023/04/26 08:19:58;;;;;;;11.77;2.97;;;8.10;99.90;;;;;;5060189;28;20036;-75
2023/04/26 08:22:24;;;;;;;7.85;2.53;;;8.10;99.90;;;;;;5057062;28;20050;-75
2023/04/26 08:24:50;;;;;;;10.18;3.30;;;8.20;99.90;;;;;;5061283;28;20052;-72
2023/04/26 08:27:17;;;;;;;8.27;2.47;;;8.30;99.90;;;;;;5061353;28;20041;-75
2023/04/26 08:29:43;;;;;;;5.95;2.05;;;8.30;99.90;;;;;;5055904;28;20080;-74
2023/04/26 08:32:12;;;;;;;8.38;2.80;;;8.30;99.90;;;;;;5057291;28;20060;-72
2023/04/26 08:34:38;;;;;;;7.50;2.60;;;8.40;99.90;;;;;;5060481;28;20044;-72
2023/04/26 08:37:05;;;;;;;9.75;2.83;;;8.50;99.90;;;;;;5063927;28;20403;-81
2023/04/26 08:39:32;;;;;;;8.25;2.88;;;8.50;99.90;;;;;;5062254;28;20338;-73
2023/04/26 08:42:05;;;;;;;8.77;2.75;;;8.60;99.90;;;;;;5065211;28;20036;-74
2023/04/26 08:44:36;;;;;;;5.28;2.53;;;8.60;99.90;;;;;;5046013;28;20045;-73
2023/04/26 08:47:08;;;;;;;8.15;2.65;;;8.60;99.90;;;;;;5080274;28;20107;-72
2023/04/26 08:49:42;;;;;;;9.38;2.53;;;8.70;99.90;;;;;;5047449;28;20044;-72
2023/04/26 08:52:13;;;;;;;19.80;3.75;;;8.70;99.20;;;;;;5059605;28;20128;-72
2023/04/26 08:54:40;;;;;;;8.52;2.60;;;8.60;99.70;;;;;;5052009;28;20045;-73
2023/04/26 08:57:09;;;;;;;9.30;2.38;;;8.70;99.10;;;;;;5047970;28;20052;-73
2023/04/26 08:59:38;;;;;;;6.50;2.33;;;8.70;96.40;;;;;;5046472;28;20042;-73
2023/04/26 09:02:05;;;;;;;6.82;3.28;;;8.70;97.50;;;;;;5050057;28;20041;-72
2023/04/26 09:04:31;;;;;;;7.40;2.30;;;8.80;96.70;;;;;;5057154;28;20076;-73
2023/04/26 09:07:03;;;;;;;5.63;2.67;;;8.70;96.60;;;;;;5053591;28;20060;-73
2023/04/26 09:09:40;;;;;;;9.50;2.40;;;8.70;96.80;;;;;;5047786;28;20048;-73
2023/04/26 09:12:07;;;;;;;5.70;2.50;;;8.80;96.90;;;;;;5047413;28;20056;-73
2023/04/26 09:14:33;;;;;;;5.97;2.00;;;8.80;97.50;;;;;;5060961;28;20160;-73
2023/04/26 09:16:59;;;;;;;7.93;2.15;;;8.90;96.00;;;;;;5072334;28;20428;-74
2023/04/26 09:19:43;;;;;;;6.78;2.10;;;9.00;94.60;;;;;;5052476;28;20040;-73
2023/04/26 09:22:10;;;;;;;4.75;2.10;;;9.20;91.40;;;;;;5046213;28;20040;-73
2023/04/26 09:24:49;;;;;;;5.97;2.13;;;9.10;91.60;;;;;;5046880;28;20029;-72
2023/04/26 09:27:15;;;;;;;5.57;2.33;;;9.30;89.20;;;;;;5060571;28;20040;-73
2023/04/26 09:30:06;;;;;;;7.97;2.25;;;9.30;90.40;;;;;;5064044;28;20041;-73
2023/04/26 09:32:57;;;;;;;7.72;2.47;;;9.40;88.60;;;;;;5053747;28;20052;-76
2023/04/26 09:35:39;;;;;;;6.97;2.33;;;9.30;89.30;;;;;;5052521;28;20040;-72
2023/04/26 09:38:13;;;;;;;6.88;2.70;;;9.30;89.00;;;;;;5052538;28;20098;-73
2023/04/26 09:40:43;;;;;;;7.07;2.88;;;9.20;91.00;;;;;;5046317;28;20033;-74
2023/04/26 09:43:14;;;;;;;7.22;3.30;;;9.10;91.90;;;;;;5055993;28;20043;-73
2023/04/26 09:45:49;;;;;;;6.15;3.13;;;8.90;94.00;;;;;;5061308;28;20044;-72
2023/04/26 09:48:30;;;;;;;8.63;3.35;;;8.80;94.90;;;;;;5058948;28;20169;-70
2023/04/26 09:51:02;;;;;;;9.32;3.97;;;8.70;95.70;;;;;;5045720;28;20408;-72
2023/04/26 09:53:38;;;;;;;9.93;3.78;;;8.70;97.50;;;;;;5049485;28;20149;-71
2023/04/26 09:56:19;;;;;;;18.73;4.32;;;8.70;99.40;;;;;;5052553;28;20045;-72
2023/04/26 09:58:45;;;;;;;7.10;2.95;;;8.80;99.90;;;;;;5050666;28;20034;-72
2023/04/26 10:01:13;;;;;;;8.95;3.00;;;8.80;99.60;;;;;;5059318;28;20275;-71
2023/04/26 10:03:40;;;;;;;7.40;2.80;;;8.80;97.70;;;;;;5054388;28;20040;-71
2023/04/26 10:06:06;;;;;;;20.63;3.37;;;8.80;97.10;;;;;;5047230;28;20091;-71
2023/04/26 10:08:32;;;;;;;8.10;2.60;;;8.90;96.10;;;;;;5059307;28;20360;-73
2023/04/26 10:11:00;;;;;;;8.23;2.70;;;8.90;96.30;;;;;;5056546;28;20041;-72
2023/04/26 10:13:26;;;;;;;8.18;2.75;;;8.90;95.50;;;;;;5053226;28;20045;-73
2023/04/26 10:15:53;;;;;;;5.97;2.95;;;9.00;96.20;;;;;;5055884;28;20056;-71
2023/04/26 10:18:19;;;;;;;7.95;3.00;;;9.00;97.10;;;;;;5051929;28;20518;-74
2023/04/26 10:20:50;;;;;;;7.80;3.10;;;9.10;97.70;;;;;;5059184;28;20127;-71
2023/04/26 10:23:24;;;;;;;8.20;3.30;;;9.30;98.30;;;;;;5053727;28;20064;-72
2023/04/26 10:25:50;;;;;;;8.63;3.28;;;9.50;97.50;;;;;;5058627;28;20566;-72
2023/04/26 10:28:17;;;;;;;10.73;3.30;;;9.70;97.00;;;;;;5048310;28;20048;-72
2023/04/26 10:30:58;;;;;;;11.82;3.30;;;9.90;96.80;;;;;;5047586;28;20428;-73
2023/04/26 10:33:25;;;;;;;7.70;3.30;;;10.00;94.70;;;;;;5049725;28;20067;-72
2023/04/26 10:36:10;;;;;;;7.78;3.10;;;10.10;92.80;;;;;;5058758;28;20101;-71
2023/04/26 10:38:39;;;;;;;8.73;3.30;;;10.20;90.90;;;;;;5045635;28;20056;-73
2023/04/26 10:41:33;;;;;;;8.10;3.38;;;10.30;93.20;;;;;;5062089;28;20063;-74
2023/04/26 10:44:39;;;;;;;6.57;2.88;;;10.40;92.40;;;;;;5054454;28;20037;-77
2023/04/26 10:47:20;;;;;;;7.85;2.85;;;10.50;92.30;;;;;;5013129;28;20726;-73
2023/04/26 10:49:47;;;;;;;7.97;3.17;;;10.60;90.00;;;;;;5012948;28;20394;-73
2023/04/26 10:52:19;;;;;;;8.23;3.30;;;10.60;90.70;;;;;;5038275;28;20492;-73
2023/04/26 10:54:50;;;;;;;7.80;3.30;;;10.60;89.90;;;;;;5059120;28;20297;-73
2023/04/26 10:57:16;;;;;;;6.03;2.90;;;10.50;89.90;;;;;;5094789;28;20045;-74
2023/04/26 11:00:16;;;;;;;7.78;3.10;;;10.60;91.10;;;;;;5055395;28;20044;-75
2023/04/26 11:02:55;;;;;;;6.82;2.88;;;10.80;90.60;;;;;;5052128;28;20052;-75
2023/04/26 11:05:42;;;;;;;5.32;2.30;;;10.90;90.70;;;;;;5053538;28;20044;-75
2023/04/26 11:08:19;;;;;;;5.80;2.10;;;10.90;85.90;;;;;;5065811;28;20049;-74
2023/04/26 11:10:56;;;;;;;8.02;2.40;;;10.80;82.70;;;;;;5053701;28;20102;-74
2023/04/26 11:13:22;;;;;;;4.60;2.30;;;10.80;82.10;;;;;;5048637;28;20044;-75
2023/04/26 11:15:53;;;;;;;7.45;2.50;;;10.80;80.80;;;;;;5052885;28;20087;-75
2023/04/26 11:18:20;;;;;;;8.13;2.65;;;10.80;81.70;;;;;;5054838;28;20033;-74
2023/04/26 11:20:45;;;;;;;7.65;2.58;;;10.60;81.40;;;;;;5055995;28;20151;-75
2023/04/26 11:23:11;;;;;;;6.25;2.88;;;10.50;80.10;;;;;;5056350;28;20732;-74
2023/04/26 11:25:38;;;;;;;9.90;2.95;;;10.30;80.20;;;;;;5048171;28;20051;-75
2023/04/26 11:28:05;;;;;;;25.45;4.32;;;10.20;83.10;;;;;;5055017;28;20302;-74
2023/04/26 11:30:31;;;;;;;10.20;3.50;;;9.90;84.40;;;;;;5062574;28;20039;-74
2023/04/26 11:33:04;;;;;;;11.70;3.40;;;9.70;85.70;;;;;;5057498;28;20033;-74
2023/04/26 11:35:33;;;;;;;13.18;3.10;;;9.40;87.90;;;;;;5055286;28;20071;-73
2023/04/26 11:37:59;;;;;;;13.75;3.75;;;9.20;88.20;;;;;;5050190;28;20043;-73
2023/04/26 11:40:32;;;;;;;9.93;3.03;;;8.90;89.40;;;;;;5063730;28;20036;-73
2023/04/26 11:43:05;;;;;;;8.40;3.03;;;8.80;90.00;;;;;;5054629;28;20094;-72
2023/04/26 11:45:32;;;;;;;9.25;3.10;;;8.70;89.90;;;;;;5080457;28;20047;-73
2023/04/26 11:47:59;;;;;;;;;;;8.60;90.40;;;;;;5080299;28;20049;-72
2023/04/26 11:50:25;;;;;;;6.03;2.73;;;8.50;90.40;;;;;;5083849;28;20379;-72
2023/04/26 11:52:59;;;;;;;7.87;2.90;;;8.50;90.70;;;;;;5054766;28;20044;-75
2023/04/26 11:55:31;;;;;;;8.50;2.83;;;8.50;91.30;;;;;;5059094;28;20130;-73
2023/04/26 11:58:07;;;;;;;6.32;2.90;;;8.50;91.60;;;;;;5061533;28;20040;-73
2023/04/26 12:00:33;;;;;;;7.65;2.70;;;8.50;91.10;;;;;;5060752;28;20079;-72
2023/04/26 12:03:06;;;;;;;5.38;2.80;;;8.50;90.70;;;;;;5053552;28;20067;-75
2023/04/26 12:05:31;;;;;;;8.45;2.58;;;8.60;90.60;;;;;;5053963;28;20047;-73
2023/04/26 12:07:58;;;;;;;10.95;2.58;;;8.70;90.60;;;;;;5055188;28;20037;-73
2023/04/26 12:10:34;;;;;;;6.75;2.40;;;8.70;89.90;;;;;;5053359;28;20044;-73
2023/04/26 12:12:59;;;;;;;6.43;2.70;;;8.80;89.80;;;;;;5057842;28;20075;-72
2023/04/26 12:15:32;;;;;;;10.80;2.58;;;9.00;88.90;;;;;;5082820;28;20068;-72
2023/04/26 12:18:11;;;;;;;7.18;2.35;;;9.00;86.90;;;;;;5061295;28;20055;-74
2023/04/26 12:20:39;;;;;;;10.32;2.55;;;9.20;87.00;;;;;;5051618;28;20041;-76
2023/04/26 12:23:06;;;;;;;7.80;2.55;;;9.30;88.10;;;;;;5063302;28;20044;-72
2023/04/26 12:25:37;;;;;;;6.38;2.70;;;9.40;87.50;;;;;;5057943;28;20045;-72
2023/04/26 12:28:04;;;;;;;10.15;2.78;;;9.50;85.70;;;;;;5052725;28;20045;-75
2023/04/26 12:30:30;;;;;;;5.38;2.40;;;9.70;85.30;;;;;;5056852;28;20988;-72
2023/04/26 12:32:56;;;;;;;6.25;2.30;;;9.70;85.80;;;;;;5050573;28;20079;-72
2023/04/26 12:35:23;;;;;;;6.43;2.42;;;9.80;85.20;;;;;;5050068;28;20068;-72
2023/04/26 12:37:49;;;;;;;6.60;2.53;;;9.90;84.40;;;;;;5051804;28;20041;-72
2023/04/26 12:40:15;;;;;;;8.10;2.65;;;10.00;84.00;;;;;;5057438;28;20570;-71
2023/04/26 12:42:41;;;;;;;6.10;2.42;;;10.00;82.30;;;;;;5060657;28;20044;-71
2023/04/26 12:45:07;;;;;;;5.78;2.22;;;10.10;82.60;;;;;;5060701;28;20093;-72
2023/04/26 12:47:35;;;;;;;7.13;2.40;;;10.20;82.30;;;;;;5056499;28;20063;-75
2023/04/26 12:50:00;;;;;;;7.47;2.58;;;10.40;84.00;;;;;;5055586;28;20522;-74
2023/04/26 12:52:27;;;;;;;6.55;2.60;;;10.60;82.00;;;;;;5049703;28;20041;-72
2023/04/26 12:54:53;;;;;;;5.90;2.60;;;10.70;80.60;;;;;;5064585;28;20101;-75